This is the latest recevied weather packets stored in our database for station/object KI6PPU. If no packets are shown the sender has not sent any weather packets the latest 1 day(s).
| Time | Temp. | Humidity | Pressure | Rain* | Wind** | Luminosity | Snow |
|---|---|---|---|---|---|---|---|
| 1778004917 | 15° C | 80% | 1017.8 hPa | 0 mm | 0.45 m/s, 192° | 372 W/m² | - |
| 1778004615 | 15° C | 83% | 1017.6 hPa | 0 mm | 0 m/s | 325 W/m² | - |
| 1778004310 | 15° C | 83% | 1017.6 hPa | 0 mm | 0.89 m/s, 0° | 314 W/m² | - |
| 1778004020 | 15° C | 79% | 1017.5 hPa | 0 mm | 1.34 m/s, 220° | 314 W/m² | - |
| 1778003703 | 15.56° C | 79% | 1017.6 hPa | 0 mm | 0.45 m/s, 291° | 411 W/m² | - |
| 1778003400 | 15° C | 80% | 1017.5 hPa | 0 mm | 0.89 m/s, 3° | 491 W/m² | - |
| 1778003097 | 15° C | 83% | 1017.7 hPa | 0 mm | 0.45 m/s, 83° | 351 W/m² | - |
| 1778002793 | 13.89° C | 82% | 1017.5 hPa | 0 mm | 0.89 m/s, 107° | 351 W/m² | - |
| 1778002490 | 14.44° C | 80% | 1017.5 hPa | 0 mm | 0.89 m/s, 128° | 330 W/m² | - |
| 1778002187 | 15° C | 79% | 1017.5 hPa | 0 mm | 0.45 m/s, 180° | 491 W/m² | - |
| 1778001885 | 13.33° C | 84% | 1017.4 hPa | 0 mm | 0 m/s | 321 W/m² | - |
| 1778001584 | 13.33° C | 83% | 1017.3 hPa | 0 mm | 0 m/s | 239 W/m² | - |
| 1778001281 | 13.89° C | 85% | 1017.5 hPa | 0 mm | 0.45 m/s, 111° | 256 W/m² | - |
| 1778000978 | 13.89° C | 87% | 1017.5 hPa | 0 mm | 0.89 m/s, 221° | 379 W/m² | - |
| 1778000675 | 12.78° C | 87% | 1017.7 hPa | 0 mm | 0 m/s | 295 W/m² | - |
| 1778000370 | 12.78° C | 87% | 1017.7 hPa | 0 mm | 0.89 m/s, 48° | 202 W/m² | - |
| 1778000066 | 12.22° C | 88% | 1017.6 hPa | 0 mm | 1.34 m/s, 96° | 192 W/m² | - |
| 1777999762 | 12.22° C | 90% | 1017.6 hPa | 0 mm | 1.34 m/s, 127° | 224 W/m² | - |
| 1777999459 | 12.22° C | 90% | 1017.5 hPa | 0 mm | 1.34 m/s, 72° | 258 W/m² | - |
| 1777999157 | 11.67° C | 93% | 1017.6 hPa | 0 mm | 1.34 m/s, 115° | 274 W/m² | - |
| 1777998856 | 11.67° C | 95% | 1017.6 hPa | 0 mm | 1.79 m/s, 143° | 223 W/m² | - |
| 1777998554 | 11.11° C | 97% | 1017.4 hPa | 0 mm | 1.34 m/s, 144° | 177 W/m² | - |
| 1777998249 | 10.56° C | 97% | 1017.4 hPa | 0 mm | 0 m/s | 187 W/m² | - |
| 1777997947 | 10.56° C | 98% | 1017.6 hPa | 0 mm | 0.89 m/s, 132° | 215 W/m² | - |
| 1777997644 | 10.56° C | 98% | 1017.7 hPa | 0 mm | 0.89 m/s, 148° | 180 W/m² | - |
* Rain latest hour (hover to see other rain measurements)
** Current wind speed in m/s (hover to see current wind gust speed)